LGAVLGHI

Guest
Details From LGAV - Athens Eleftherios Venizelos
To LGHI - Chios
Flight Number -
Tags decoded
Created
Modified
Stats Distance 123 nm / 228 km
Max Altitude 0 ft / 0 m
Waypoints 10
Social Downloads 1
Likes 0
Share

Download

Looking for another format? Having issues loading an existing format? Contact us
Advertisement - Login to hide

Notes

Requested: LGAV KRO G8 OLIDA G802 KERMA LG618 MES LGHI Unmatched points: LG618

Route

LGAV KRO G8 OLIDA G802 KERMA MES LGHI

ID Type Via Altitude (ft/m) Position (lat/lon) Dist (leg/tot) Name
O LGAV APT - 0 / 0 37.93670 / 23.94450 - / 0 nm Athens Eleftherios Venizelos
KRO VOR - 0 / 0 37.99410 / 24.49490 26 / 26 nm KARISTOS
KEPIR FIX G8 (AWY-LO) 0 / 0 38.16860 / 24.65720 12 / 39 nm
OLIDA FIX G8 (AWY-LO) 0 / 0 38.41830 / 24.89110 18 / 57 nm
PANOX FIX G802 (AWY-LO) 0 / 0 38.37670 / 25.71720 38 / 96 nm
PIVOS FIX G802 (AWY-LO) 0 / 0 38.37470 / 25.75030 1 / 98 nm
NEMIS FIX G802 (AWY-LO) 0 / 0 38.37310 / 25.78780 1 / 100 nm
KERMA FIX G802 (AWY-LO) 0 / 0 38.36860 / 25.86000 3 / 103 nm
MES VOR - 0 / 0 38.25170 / 25.90570 7 / 110 nm MESTA
O LGHI APT - 0 / 0 38.34330 / 26.14060 12 / 123 nm Chios

Altitude Profile

Advertisement - Login to hide

LGAV

Details ICAO LGAV (ATH)
Name Athens Eleftherios Venizelos
Region Greece
Timezone Europe/Athens (UTC+3.0)
Stats Elevation 308 ft / 94 m (AMSL)
Location 37.936700° 23.944500°
Runways 2
Magnetic Variation 5.102° E

METAR

LGAV 210420Z VRB01KT 9999 FEW025 11/08 Q1011 NOSIG

Decode

TAF

TAF TAF LGAV 202300Z 2100/2124 VRB05KT 9999 FEW020 SCT030 BECMG 2108/2110 20012KT TEMPO 2112/2118 22010G20KT

Decode

Departure Runways

ID Width Length Bearing (true/mag) Surface Threshold Overrun Markings Lighting
03L 151 ft / 46 m 12,478 ft / 3,803 m 36.86° / 31.76° ASPHALT 984 ft / 300 m 394 ft / 120 m PREC-APP CENTERLINE EDGE THRESHOLD ALSF-II TDZ REIL-OMNI
03R 151 ft / 46 m 13,135 ft / 4,004 m 36.87° / 31.77° ASPHALT 984 ft / 300 m 394 ft / 120 m PREC-APP CENTERLINE EDGE THRESHOLD ALSF-II TDZ REIL-OMNI
21L 151 ft / 46 m 13,135 ft / 4,004 m 216.89° / 211.79° ASPHALT 984 ft / 300 m 394 ft / 120 m PREC-APP CENTERLINE EDGE THRESHOLD ALSF-II TDZ REIL-OMNI
21R 151 ft / 46 m 12,478 ft / 3,803 m 216.87° / 211.77° ASPHALT 984 ft / 300 m 394 ft / 120 m PREC-APP CENTERLINE EDGE THRESHOLD ALSF-II TDZ REIL-OMNI

LGHI

Details ICAO LGHI (JKH)
Name Chios
Region Greece
Timezone Europe/Athens (UTC+3.0)
Stats Elevation 18 ft / 5 m (AMSL)
Location 38.343300° 26.140600°
Runways 1
Magnetic Variation 5.406° E

METAR

LGHI 210350Z 21004KT 9999 FEW025 09/07 Q1011

Decode

TAF

Not found

Destination Runways

ID Width Length Bearing (true/mag) Surface Threshold Overrun Markings Lighting
01 95 ft / 29 m 5,352 ft / 1,631 m 9.51° / 4.11° ASPHALT 659 ft / 201 m 0 ft / 0 m APP CENTERLINE EDGE THRESHOLD MALSF
19 95 ft / 29 m 5,352 ft / 1,631 m 189.52° / 184.11° ASPHALT 427 ft / 130 m 0 ft / 0 m APP CENTERLINE EDGE THRESHOLD MALSF

Popular Alternatives